EGCC/MAN METAR and TAF weather

Enter ICAO airport designator
Station Type Date Time Source
EGCC METAR 2020/10/20 17:50 UTC NOAA

EGCC 201750Z AUTO 16005KT 090V250 9999 NCD 15/11 Q0996 NOSIG


Station Type Date Time Source
EGCC Decoded METAR 2020/10/20 17:50 UTC NOAA

Manchester Airport, United Kingdom (EGCC) 53-21N 002-17W 0M
Oct 20, 2020 - 01:50 PM EDT / 2020.10.20 1750 UTC
Wind: from the SSE (160 degrees) at 6 MPH (5 KT) (direction variable):0
Visibility: greater than 7 mile(s):0
Temperature: 59 F (15 C)
Dew Point: 51 F (11 C)
Relative Humidity: 76%
Pressure (altimeter): 29.41 in. Hg (0996 hPa)
ob: EGCC 201750Z AUTO 16005KT 090V250 9999 NCD 15/11 Q0996 NOSIG
cycle: 18

Station Type Date Time Source
EGCC TAF 2020/10/20 18:47 UTC NOAA

TAF
AMD EGCC 201743Z 2018/2124 18009KT 9999 SCT025 PROB40
TEMPO 2020/2117 7000 RA PROB30
TEMPO 2103/2112 BKN008 PROB30
TEMPO 2113/2116 BKN014

Example: see airport list